createdAt,value
2019-03-11T00:00:39.308Z,19.67
2019-03-11T00:03:06.031Z,16.90
2019-03-11T00:05:32.197Z,18.63
2019-03-11T00:07:58.422Z,23.17
2019-03-11T00:10:24.695Z,19.77
2019-03-11T00:12:50.950Z,24.20
2019-03-11T00:15:17.076Z,15.70
2019-03-11T00:17:43.388Z,20.77
2019-03-11T00:20:09.703Z,14.73
2019-03-11T00:22:35.990Z,16.00
2019-03-11T00:25:03.320Z,20.13
2019-03-11T00:27:29.534Z,19.57
2019-03-11T00:29:55.644Z,22.67
2019-03-11T00:32:21.777Z,20.87
2019-03-11T00:34:47.874Z,21.17
2019-03-11T00:37:14.073Z,17.63
2019-03-11T00:39:40.245Z,17.37
2019-03-11T00:42:06.713Z,18.67
2019-03-11T00:44:32.864Z,22.77
2019-03-11T00:46:59.123Z,23.00
2019-03-11T00:49:25.228Z,19.47
2019-03-11T00:51:51.354Z,19.93
2019-03-11T00:54:17.565Z,19.23
2019-03-11T00:56:43.805Z,18.27
2019-03-11T00:59:09.919Z,24.47
2019-03-11T01:01:36.167Z,16.87
2019-03-11T01:04:02.504Z,15.70
2019-03-11T01:06:28.590Z,17.23
2019-03-11T01:08:54.824Z,23.00
2019-03-11T01:11:21.017Z,17.63
2019-03-11T01:13:47.113Z,19.97
2019-03-11T01:16:13.327Z,17.90
2019-03-11T01:18:39.432Z,19.33
2019-03-11T01:21:05.585Z,17.73
2019-03-11T01:23:31.752Z,18.33
2019-03-11T01:25:57.893Z,21.60
2019-03-11T01:28:24.131Z,16.90
2019-03-11T01:30:50.204Z,15.00
2019-03-11T01:33:16.372Z,19.53
2019-03-11T01:35:42.774Z,22.77
2019-03-11T01:38:09.005Z,17.37
2019-03-11T01:40:35.306Z,17.30
2019-03-11T01:43:01.474Z,20.67
2019-03-11T01:45:27.707Z,19.10
2019-03-11T01:47:53.832Z,19.07
2019-03-11T01:50:20.062Z,21.00
2019-03-11T01:52:46.225Z,20.70
2019-03-11T01:55:12.955Z,19.53
2019-03-11T01:57:39.184Z,19.73
2019-03-11T02:00:08.792Z,23.17
2019-03-11T02:02:35.031Z,25.40
2019-03-11T02:05:01.275Z,21.50
2019-03-11T02:07:27.374Z,19.30
2019-03-11T02:09:53.617Z,18.90
2019-03-11T02:12:19.847Z,19.83
2019-03-11T02:14:46.043Z,17.00
2019-03-11T02:17:12.110Z,17.00
2019-03-11T02:19:38.280Z,18.37
2019-03-11T02:22:04.460Z,17.70
2019-03-11T02:24:30.581Z,18.10
2019-03-11T02:26:56.909Z,19.50
2019-03-11T02:29:23.308Z,20.50
2019-03-11T02:31:49.532Z,16.83
2019-03-11T02:34:15.665Z,16.57
2019-03-11T02:36:41.747Z,19.30
2019-03-11T02:39:08.420Z,18.03
2019-03-11T02:41:34.724Z,17.67
2019-03-11T02:44:01.059Z,20.67
2019-03-11T02:46:27.331Z,22.50
2019-03-11T02:48:53.514Z,21.50
2019-03-11T02:51:19.596Z,19.97
2019-03-11T02:53:45.735Z,17.67
2019-03-11T02:56:11.851Z,21.73
2019-03-11T02:58:38.269Z,17.47
2019-03-11T03:01:23.197Z,24.30
2019-03-11T03:04:07.761Z,19.17
2019-03-11T03:06:34.087Z,20.60
2019-03-11T03:09:00.374Z,21.60
2019-03-11T03:11:26.613Z,21.97
2019-03-11T03:13:52.742Z,23.07
2019-03-11T03:16:19.148Z,25.43
2019-03-11T03:18:45.383Z,26.57
2019-03-11T03:21:11.512Z,31.07
2019-03-11T03:23:37.747Z,29.83
2019-03-11T03:26:03.942Z,33.47
2019-03-11T03:28:30.013Z,25.20
2019-03-11T03:30:56.134Z,29.30
2019-03-11T03:33:22.264Z,32.47
2019-03-11T03:35:48.461Z,31.73
2019-03-11T03:38:28.878Z,29.93
2019-03-11T03:40:42.723Z,24.33
2019-03-11T03:43:09.214Z,22.73
2019-03-11T03:45:38.363Z,23.57
2019-03-11T03:48:04.691Z,20.80
2019-03-11T03:50:38.207Z,23.03
2019-03-11T03:53:04.902Z,17.70
2019-03-11T03:55:32.316Z,16.97
2019-03-11T03:57:58.627Z,21.13
2019-03-11T04:00:24.860Z,23.40
2019-03-11T04:02:51.026Z,23.13
2019-03-11T04:05:17.116Z,30.60
2019-03-11T04:07:44.413Z,24.00
2019-03-11T04:10:16.146Z,26.47
2019-03-11T04:12:42.503Z,29.63
2019-03-11T04:15:09.763Z,24.47
2019-03-11T04:17:36.050Z,24.17
2019-03-11T04:20:05.076Z,23.07
2019-03-11T04:22:31.482Z,21.33
2019-03-11T04:24:57.819Z,22.67
2019-03-11T04:27:24.186Z,20.60
2019-03-11T04:29:50.349Z,20.33
2019-03-11T04:32:16.627Z,18.67
2019-03-11T04:34:42.894Z,21.97
2019-03-11T04:37:08.992Z,19.10
2019-03-11T04:39:35.299Z,20.87
2019-03-11T04:42:01.555Z,22.03
2019-03-11T04:44:27.746Z,23.53
2019-03-11T04:46:53.964Z,22.07
2019-03-11T04:49:20.087Z,21.60
2019-03-11T04:51:46.184Z,19.70
2019-03-11T04:54:12.582Z,20.37
2019-03-11T04:56:38.817Z,22.60
2019-03-11T04:59:11.761Z,17.00
2019-03-11T05:01:38.228Z,18.20
2019-03-11T05:04:04.361Z,21.40
2019-03-11T05:06:30.715Z,19.97
2019-03-11T05:08:57.020Z,22.70
2019-03-11T05:11:23.165Z,21.93
2019-03-11T05:13:49.284Z,19.80
2019-03-11T05:16:15.847Z,20.30
2019-03-11T05:18:42.138Z,23.73
2019-03-11T05:21:08.336Z,21.17
2019-03-11T05:23:34.553Z,13.90
2019-03-11T05:26:00.738Z,17.43
2019-03-11T05:28:27.046Z,18.60
2019-03-11T05:30:53.244Z,23.77
2019-03-11T05:33:19.450Z,21.20
2019-03-11T05:35:45.680Z,20.67
2019-03-11T05:38:11.953Z,22.97
2019-03-11T05:40:38.268Z,22.40
2019-03-11T05:43:04.472Z,35.27
2019-03-11T05:45:31.620Z,25.90
2019-03-11T05:47:57.794Z,25.37
2019-03-11T05:50:23.928Z,20.33
2019-03-11T05:52:50.345Z,28.83
2019-03-11T05:55:17.421Z,23.90
2019-03-11T05:57:43.838Z,26.73
2019-03-11T06:00:25.002Z,23.53
2019-03-11T06:02:53.230Z,22.83
2019-03-11T06:05:19.660Z,22.47
2019-03-11T06:07:45.833Z,21.43
2019-03-11T06:10:13.571Z,22.43
2019-03-11T06:12:39.886Z,20.90
2019-03-11T06:15:11.259Z,25.13
2019-03-11T06:17:37.514Z,19.97
2019-03-11T06:20:25.707Z,20.07
2019-03-11T06:22:51.784Z,21.97
2019-03-11T06:25:17.943Z,21.90
2019-03-11T06:27:44.050Z,18.13
2019-03-11T06:30:10.842Z,21.47
2019-03-11T06:32:37.078Z,22.67
2019-03-11T06:35:03.989Z,18.20
2019-03-11T06:37:30.219Z,20.27
2019-03-11T06:39:56.382Z,18.50
2019-03-11T06:42:22.608Z,23.00
2019-03-11T06:44:48.746Z,21.53
2019-03-11T06:47:15.003Z,21.17
2019-03-11T06:49:41.253Z,19.77
2019-03-11T06:52:07.489Z,29.80
2019-03-11T06:54:33.715Z,23.93
2019-03-11T06:56:59.933Z,30.63
2019-03-11T06:59:26.066Z,26.67
2019-03-11T07:01:54.110Z,21.43
2019-03-11T07:04:20.253Z,18.00
2019-03-11T07:06:46.429Z,19.90
2019-03-11T07:09:12.803Z,23.47
2019-03-11T07:11:39.152Z,22.77
2019-03-11T07:14:05.416Z,19.03
2019-03-11T07:16:31.700Z,19.83
2019-03-11T07:18:57.865Z,22.03
2019-03-11T07:21:23.960Z,18.57
2019-03-11T07:23:50.094Z,21.87
2019-03-11T07:26:16.334Z,21.43
2019-03-11T07:28:42.516Z,16.37
2019-03-11T07:31:09.928Z,18.13
2019-03-11T07:33:36.077Z,19.87
2019-03-11T07:36:02.455Z,15.73
2019-03-11T07:38:28.679Z,15.60
2019-03-11T07:40:54.830Z,16.50
2019-03-11T07:43:20.940Z,13.87
2019-03-11T07:45:47.164Z,16.67
2019-03-11T07:48:13.362Z,17.73
2019-03-11T07:50:39.609Z,15.13
2019-03-11T07:53:06.254Z,20.40
2019-03-11T07:55:32.427Z,20.00
2019-03-11T07:57:58.617Z,14.53
2019-03-11T08:00:26.209Z,21.93
2019-03-11T08:02:52.575Z,22.43
2019-03-11T08:05:18.819Z,18.77
2019-03-11T08:07:45.075Z,19.43
2019-03-11T08:10:24.075Z,18.27
2019-03-11T08:12:50.485Z,22.80
2019-03-11T08:15:16.652Z,20.63
2019-03-11T08:17:43.079Z,28.80
2019-03-11T08:20:10.504Z,24.90
2019-03-11T08:22:36.861Z,22.97
2019-03-11T08:25:05.281Z,21.47
2019-03-11T08:27:32.606Z,24.87
2019-03-11T08:29:59.636Z,24.90
2019-03-11T08:32:27.134Z,27.40
2019-03-11T08:34:53.242Z,28.37
2019-03-11T08:37:19.664Z,28.13
2019-03-11T08:39:45.874Z,26.70
2019-03-11T08:42:12.210Z,28.10
2019-03-11T08:44:38.432Z,26.70
2019-03-11T08:47:04.705Z,26.03
2019-03-11T08:49:30.811Z,21.07
2019-03-11T08:51:56.910Z,20.80
2019-03-11T08:54:24.157Z,20.53
2019-03-11T08:56:50.374Z,19.87
2019-03-11T08:59:16.791Z,16.60
2019-03-11T09:01:42.986Z,16.47
2019-03-11T09:04:09.210Z,19.10
2019-03-11T09:06:35.437Z,15.87
2019-03-11T09:09:01.763Z,20.20
2019-03-11T09:11:29.803Z,16.20
2019-03-11T09:13:56.207Z,21.80
2019-03-11T09:16:22.552Z,18.63
2019-03-11T09:18:49.021Z,20.87
2019-03-11T09:21:15.140Z,17.00
2019-03-11T09:23:41.262Z,19.03
2019-03-11T09:26:07.384Z,20.67
2019-03-11T09:28:33.727Z,24.03
2019-03-11T09:31:00.190Z,21.40
2019-03-11T09:33:26.616Z,20.53
2019-03-11T09:35:52.924Z,20.93
2019-03-11T09:38:19.242Z,22.80
2019-03-11T09:40:45.545Z,24.10
2019-03-11T09:43:11.791Z,18.60
2019-03-11T09:45:38.024Z,25.57
2019-03-11T09:48:04.107Z,25.40
2019-03-11T09:50:30.464Z,26.83
2019-03-11T09:52:56.679Z,28.57
2019-03-11T09:55:24.587Z,26.90
2019-03-11T09:57:50.854Z,28.30
2019-03-11T10:00:31.004Z,27.40
2019-03-11T10:02:57.239Z,29.83
2019-03-11T10:05:23.583Z,27.57
2019-03-11T10:07:49.968Z,33.97
2019-03-11T10:10:21.337Z,27.87
2019-03-11T10:12:47.566Z,25.80
2019-03-11T10:15:18.867Z,26.33
2019-03-11T10:17:45.525Z,24.47
2019-03-11T10:20:15.181Z,18.67
2019-03-11T10:22:41.499Z,20.73
2019-03-11T10:25:08.743Z,24.83
2019-03-11T10:27:35.193Z,21.17
2019-03-11T10:30:01.530Z,21.50
2019-03-11T10:32:28.078Z,25.17
2019-03-11T10:34:54.320Z,21.53
2019-03-11T10:37:20.537Z,23.80
2019-03-11T10:39:47.903Z,23.97
2019-03-11T10:42:14.376Z,22.77
2019-03-11T10:44:40.560Z,26.43
2019-03-11T10:47:06.852Z,24.80
2019-03-11T10:49:32.993Z,21.40
2019-03-11T10:51:59.252Z,25.50
2019-03-11T10:54:25.469Z,27.20
2019-03-11T10:56:51.915Z,24.17
2019-03-11T10:59:18.106Z,25.70
2019-03-11T11:01:44.405Z,31.00
2019-03-11T11:04:10.587Z,22.30
2019-03-11T11:06:36.937Z,22.53
2019-03-11T11:09:04.943Z,24.20
2019-03-11T11:11:32.605Z,28.53
2019-03-11T11:13:58.904Z,24.33
2019-03-11T11:16:25.148Z,25.07
2019-03-11T11:18:51.339Z,25.27
2019-03-11T11:21:17.631Z,22.43
2019-03-11T11:23:43.846Z,20.20
2019-03-11T11:26:10.108Z,17.37
2019-03-11T11:28:36.336Z,21.40
2019-03-11T11:31:03.154Z,19.30
2019-03-11T11:33:29.461Z,19.37
2019-03-11T11:35:56.768Z,21.73
2019-03-11T11:38:23.571Z,22.10
2019-03-11T11:40:50.330Z,17.80
2019-03-11T11:43:16.564Z,16.73
2019-03-11T11:45:42.882Z,21.67
2019-03-11T11:48:09.337Z,18.13
2019-03-11T11:50:35.557Z,17.37
2019-03-11T11:53:01.773Z,21.70
2019-03-11T11:55:28.103Z,23.53
2019-03-11T11:57:54.302Z,20.13
2019-03-11T12:00:27.776Z,22.67
2019-03-11T12:02:54.093Z,25.83
2019-03-11T12:05:21.364Z,21.90
2019-03-11T12:07:47.868Z,20.57
2019-03-11T12:10:21.927Z,24.30
2019-03-11T12:12:48.394Z,16.27
2019-03-11T12:15:14.792Z,20.30
2019-03-11T12:17:41.068Z,23.77
2019-03-11T12:20:14.945Z,23.73
2019-03-11T12:22:42.724Z,21.67
2019-03-11T12:25:10.795Z,22.13
2019-03-11T12:27:37.175Z,16.77
2019-03-11T12:30:12.753Z,19.53
2019-03-11T12:32:39.091Z,24.77
2019-03-11T12:35:07.292Z,23.53
2019-03-11T12:37:33.557Z,18.47
2019-03-11T12:39:59.835Z,18.20
2019-03-11T12:42:26.222Z,13.67
2019-03-11T12:44:53.732Z,16.97
2019-03-11T12:47:21.118Z,15.27
2019-03-11T12:49:47.336Z,13.47
2019-03-11T12:52:13.695Z,19.00
2019-03-11T12:54:39.820Z,17.27
2019-03-11T12:57:05.950Z,19.17
2019-03-11T12:59:32.271Z,19.83
2019-03-11T13:01:58.380Z,11.77
2019-03-11T13:04:24.698Z,13.47
2019-03-11T13:06:50.968Z,17.03
2019-03-11T13:09:17.181Z,13.77
2019-03-11T13:11:43.402Z,13.47
2019-03-11T13:14:09.719Z,18.90
2019-03-11T13:16:35.858Z,17.97
2019-03-11T13:19:12.439Z,17.57
2019-03-11T13:21:30.512Z,14.80
2019-03-11T13:23:56.832Z,13.13
2019-03-11T13:26:22.942Z,22.03
2019-03-11T13:28:49.047Z,16.83
2019-03-11T13:31:15.320Z,18.27
2019-03-11T13:33:41.656Z,14.50
2019-03-11T13:36:08.040Z,17.20
2019-03-11T13:38:35.701Z,17.60
2019-03-11T13:41:03.394Z,18.50
2019-03-11T13:43:29.720Z,17.93
2019-03-11T13:45:56.093Z,15.03
2019-03-11T13:48:22.390Z,17.10
2019-03-11T13:50:48.505Z,12.07
2019-03-11T13:53:14.731Z,18.40
2019-03-11T13:55:41.083Z,19.90
2019-03-11T13:58:07.474Z,9.23
2019-03-11T14:00:33.734Z,14.03
2019-03-11T14:02:59.884Z,16.67
2019-03-11T14:05:26.351Z,13.67
2019-03-11T14:07:52.578Z,14.83
2019-03-11T14:10:18.949Z,15.87
2019-03-11T14:12:45.172Z,16.97
2019-03-11T14:15:14.123Z,16.73
2019-03-11T14:17:40.460Z,18.20
2019-03-11T14:20:09.854Z,19.07
2019-03-11T14:22:36.205Z,16.30
2019-03-11T14:25:04.330Z,14.27
2019-03-11T14:27:30.858Z,17.27
2019-03-11T14:29:57.088Z,14.80
2019-03-11T14:32:23.333Z,14.00
2019-03-11T14:34:49.541Z,15.80
2019-03-11T14:37:15.687Z,17.23
2019-03-11T14:39:41.976Z,15.93
2019-03-11T14:42:08.480Z,17.73
2019-03-11T14:44:35.835Z,14.17
2019-03-11T14:47:02.210Z,13.47
2019-03-11T14:49:28.396Z,16.93
2019-03-11T14:51:54.763Z,13.97
2019-03-11T14:54:21.156Z,18.63
2019-03-11T14:56:47.285Z,20.37
2019-03-11T14:59:13.642Z,16.13
2019-03-11T15:01:39.922Z,14.30
2019-03-11T15:04:06.327Z,14.90
2019-03-11T15:06:32.643Z,13.40
2019-03-11T15:08:58.815Z,18.87
2019-03-11T15:11:25.215Z,18.87
2019-03-11T15:13:51.520Z,18.37
2019-03-11T15:16:17.778Z,12.37
2019-03-11T15:18:44.221Z,19.87
2019-03-11T15:21:10.454Z,13.57
2019-03-11T15:23:36.915Z,14.10
2019-03-11T15:26:05.609Z,20.57
2019-03-11T15:28:31.549Z,20.13
2019-03-11T15:30:57.809Z,18.83
2019-03-11T15:33:24.016Z,16.30
2019-03-11T15:35:50.176Z,19.53
2019-03-11T15:38:16.547Z,20.87
2019-03-11T15:40:42.902Z,22.13
2019-03-11T15:43:09.130Z,21.87
2019-03-11T15:45:38.899Z,13.93
2019-03-11T15:48:03.658Z,15.97
2019-03-11T15:50:32.022Z,21.00
2019-03-11T15:52:58.284Z,17.40
2019-03-11T15:55:24.525Z,14.13
2019-03-11T15:57:50.820Z,11.47
2019-03-11T16:00:18.785Z,13.47
2019-03-11T16:02:45.227Z,19.60
2019-03-11T16:05:11.626Z,18.70
2019-03-11T16:07:38.079Z,13.10
2019-03-11T16:10:16.259Z,13.80
2019-03-11T16:12:36.035Z,14.03
2019-03-11T16:15:03.967Z,22.53
2019-03-11T16:17:30.301Z,15.43
2019-03-11T16:19:56.556Z,18.43
2019-03-11T16:22:26.136Z,15.87
2019-03-11T16:24:50.960Z,14.07
2019-03-11T16:27:17.186Z,18.40
2019-03-11T16:29:43.465Z,15.80
2019-03-11T16:32:11.931Z,12.50
2019-03-11T16:34:38.256Z,19.10
2019-03-11T16:37:04.435Z,21.47
2019-03-11T16:39:30.651Z,17.53
2019-03-11T16:41:56.804Z,17.03
2019-03-11T16:44:23.198Z,17.70
2019-03-11T16:46:49.653Z,17.00
2019-03-11T16:49:15.955Z,14.87
2019-03-11T16:51:42.190Z,15.70
2019-03-11T16:54:08.339Z,13.63
2019-03-11T16:56:34.602Z,6.90
2019-03-11T16:59:00.857Z,10.27
2019-03-11T17:01:27.198Z,10.53
2019-03-11T17:03:53.434Z,10.43
2019-03-11T17:06:19.680Z,8.07
2019-03-11T17:08:45.915Z,9.90
2019-03-11T17:11:12.294Z,8.17
2019-03-11T17:13:38.533Z,7.33
2019-03-11T17:16:04.842Z,6.03
2019-03-11T17:18:31.113Z,8.30
2019-03-11T17:20:57.345Z,6.57
2019-03-11T17:23:23.570Z,9.80
2019-03-11T17:25:49.896Z,13.77
2019-03-11T17:28:17.207Z,8.17
2019-03-11T17:30:43.388Z,8.50
2019-03-11T17:33:09.603Z,11.50
2019-03-11T17:35:37.689Z,10.90
2019-03-11T17:38:03.961Z,18.17
2019-03-11T17:40:30.302Z,25.77
2019-03-11T17:42:57.875Z,22.73
2019-03-11T17:45:24.206Z,17.20
2019-03-11T17:47:51.604Z,10.80
2019-03-11T17:50:20.421Z,11.47
2019-03-11T17:52:46.950Z,7.23
2019-03-11T17:55:14.813Z,14.60
2019-03-11T17:57:41.225Z,11.47
2019-03-11T18:00:15.230Z,11.93
2019-03-11T18:02:41.557Z,10.50
2019-03-11T18:05:08.136Z,13.20
2019-03-11T18:07:34.377Z,11.53
2019-03-11T18:10:02.822Z,13.17
2019-03-11T18:12:31.076Z,14.70
2019-03-11T18:14:57.420Z,11.87
2019-03-11T18:17:23.661Z,11.13
2019-03-11T18:19:49.982Z,12.00
2019-03-11T18:22:16.342Z,12.30
2019-03-11T18:24:42.540Z,13.57
2019-03-11T18:27:08.833Z,13.27
2019-03-11T18:29:35.291Z,13.50
2019-03-11T18:32:02.304Z,14.00
2019-03-11T18:34:28.895Z,13.90
2019-03-11T18:36:55.031Z,11.87
2019-03-11T18:39:21.255Z,17.33
2019-03-11T18:41:47.565Z,15.13
2019-03-11T18:44:13.913Z,15.07
2019-03-11T18:46:40.145Z,15.93
2019-03-11T18:49:06.411Z,14.00
2019-03-11T18:51:32.900Z,15.10
2019-03-11T18:53:59.272Z,14.90
2019-03-11T18:56:25.606Z,14.77
2019-03-11T18:58:51.904Z,14.70
2019-03-11T19:01:18.324Z,13.10
2019-03-11T19:03:44.471Z,16.87
2019-03-11T19:06:10.860Z,19.50
2019-03-11T19:08:37.222Z,15.23
2019-03-11T19:11:03.421Z,18.30
2019-03-11T19:13:29.762Z,20.77
2019-03-11T19:15:56.012Z,19.43
2019-03-11T19:18:22.169Z,15.30
2019-03-11T19:20:48.420Z,14.53
2019-03-11T19:23:14.601Z,19.63
2019-03-11T19:25:41.707Z,22.00
2019-03-11T19:28:08.201Z,18.87
2019-03-11T19:30:34.626Z,19.67
2019-03-11T19:33:00.813Z,18.53
2019-03-11T19:35:27.246Z,16.20
2019-03-11T19:37:53.692Z,19.50
2019-03-11T19:40:21.886Z,17.10
2019-03-11T19:42:48.253Z,16.03
2019-03-11T19:45:15.361Z,17.17
2019-03-11T19:47:41.766Z,16.30
2019-03-11T19:50:10.443Z,15.17
2019-03-11T19:52:36.855Z,15.50
2019-03-11T19:55:04.231Z,17.33
2019-03-11T19:57:31.139Z,14.00
2019-03-11T19:59:57.340Z,16.43
2019-03-11T20:02:24.493Z,18.63
2019-03-11T20:04:51.179Z,18.27
2019-03-11T20:07:17.677Z,14.73
2019-03-11T20:09:43.946Z,20.93
2019-03-11T20:12:10.396Z,17.07
2019-03-11T20:14:36.569Z,19.87
2019-03-11T20:17:03.004Z,13.47
2019-03-11T20:19:29.409Z,15.80
2019-03-11T20:21:55.864Z,19.03
2019-03-11T20:24:22.255Z,21.20
2019-03-11T20:26:48.490Z,18.70
2019-03-11T20:29:14.764Z,17.20
2019-03-11T20:31:42.273Z,15.63
2019-03-11T20:34:09.078Z,16.40
2019-03-11T20:36:35.491Z,17.30
2019-03-11T20:39:01.881Z,16.60
2019-03-11T20:41:30.046Z,14.53
2019-03-11T20:43:56.482Z,15.60
2019-03-11T20:46:23.008Z,22.03
2019-03-11T20:48:49.432Z,16.50
2019-03-11T20:51:15.587Z,16.83
2019-03-11T20:53:41.760Z,22.13
2019-03-11T20:56:08.110Z,17.67
2019-03-11T20:58:34.457Z,14.80
2019-03-11T21:01:01.155Z,15.90
2019-03-11T21:03:28.847Z,14.30
2019-03-11T21:05:58.368Z,17.70
2019-03-11T21:08:24.456Z,16.43
2019-03-11T21:10:50.675Z,20.37
2019-03-11T21:13:17.147Z,16.43
2019-03-11T21:15:43.694Z,20.20
2019-03-11T21:18:10.420Z,19.27
2019-03-11T21:20:36.753Z,14.87
2019-03-11T21:23:03.278Z,20.03
2019-03-11T21:25:29.668Z,18.03
2019-03-11T21:27:56.172Z,20.17
2019-03-11T21:30:23.452Z,22.30
2019-03-11T21:32:49.823Z,21.27
2019-03-11T21:35:16.415Z,21.40
2019-03-11T21:37:42.949Z,20.83
2019-03-11T21:40:16.433Z,22.67
2019-03-11T21:42:42.818Z,24.40
2019-03-11T21:45:13.966Z,19.13
2019-03-11T21:47:40.286Z,25.50
2019-03-11T21:50:18.555Z,17.73
2019-03-11T21:52:45.139Z,20.47
2019-03-11T21:55:14.727Z,21.77
2019-03-11T21:57:41.102Z,23.43
2019-03-11T22:00:10.642Z,18.03
2019-03-11T22:02:37.629Z,25.50
2019-03-11T22:05:04.477Z,22.13
2019-03-11T22:07:30.912Z,22.87
2019-03-11T22:09:58.100Z,26.93
2019-03-11T22:12:24.476Z,23.10
2019-03-11T22:14:50.685Z,20.70
2019-03-11T22:17:16.844Z,24.73
2019-03-11T22:19:43.380Z,20.90
2019-03-11T22:22:09.630Z,21.73
2019-03-11T22:24:35.831Z,25.73
2019-03-11T22:27:02.025Z,24.20
2019-03-11T22:29:28.290Z,24.90
2019-03-11T22:31:54.421Z,25.30
2019-03-11T22:34:20.677Z,27.53
2019-03-11T22:36:46.906Z,23.30
2019-03-11T22:39:13.075Z,23.23
2019-03-11T22:41:39.393Z,19.17
2019-03-11T22:44:05.525Z,26.33
2019-03-11T22:46:31.709Z,24.60
2019-03-11T22:48:58.053Z,26.70
2019-03-11T22:51:24.350Z,23.50
2019-03-11T22:53:51.829Z,25.77
2019-03-11T22:56:17.959Z,28.47
2019-03-11T22:58:44.188Z,23.40
2019-03-11T23:01:10.719Z,24.27
2019-03-11T23:03:37.099Z,23.87
2019-03-11T23:06:03.614Z,26.83
2019-03-11T23:08:29.960Z,25.40
2019-03-11T23:10:56.226Z,23.17
2019-03-11T23:13:22.401Z,24.67
2019-03-11T23:15:50.416Z,25.70
2019-03-11T23:18:16.558Z,28.27
2019-03-11T23:20:42.939Z,33.13
2019-03-11T23:23:09.320Z,28.37
2019-03-11T23:25:35.467Z,24.97
2019-03-11T23:28:01.847Z,23.37
2019-03-11T23:30:28.103Z,22.80
2019-03-11T23:32:54.431Z,24.50
2019-03-11T23:35:20.755Z,24.00
2019-03-11T23:37:46.989Z,27.90
2019-03-11T23:40:15.543Z,25.73
2019-03-11T23:42:41.980Z,25.47
2019-03-11T23:45:10.098Z,36.70
2019-03-11T23:47:36.328Z,36.43
2019-03-11T23:50:03.739Z,30.20
2019-03-11T23:52:29.869Z,29.17
2019-03-11T23:54:55.974Z,29.70
2019-03-11T23:57:22.074Z,29.63
2019-03-11T23:59:48.216Z,28.57
